sensor_id;sensor_type;location;lat;lon;timestamp;pressure;altitude;pressure_sealevel;temperature;humidity
79707;BME280;69200;53.612;-2.416;2023-05-20T00:00:06;101238.91;;;10.89;83.52
79707;BME280;69200;53.612;-2.416;2023-05-20T00:02:32;101247.88;;;10.76;84.62
79707;BME280;69200;53.612;-2.416;2023-05-20T00:04:58;101246.41;;;10.67;84.54
79707;BME280;69200;53.612;-2.416;2023-05-20T00:07:23;101243.72;;;10.67;84.63
79707;BME280;69200;53.612;-2.416;2023-05-20T00:09:48;101240.75;;;10.62;84.65
79707;BME280;69200;53.612;-2.416;2023-05-20T00:12:14;101242.44;;;10.63;84.16
79707;BME280;69200;53.612;-2.416;2023-05-20T00:14:39;101242.00;;;10.53;84.93
79707;BME280;69200;53.612;-2.416;2023-05-20T00:17:05;101238.88;;;10.43;85.37
79707;BME280;69200;53.612;-2.416;2023-05-20T00:19:30;101232.56;;;10.29;85.69
79707;BME280;69200;53.612;-2.416;2023-05-20T00:21:56;101240.91;;;10.41;85.15
79707;BME280;69200;53.612;-2.416;2023-05-20T00:24:23;101243.22;;;10.37;86.03
79707;BME280;69200;53.612;-2.416;2023-05-20T00:26:48;101248.44;;;10.39;85.46
79707;BME280;69200;53.612;-2.416;2023-05-20T00:29:14;101238.00;;;10.35;85.46
79707;BME280;69200;53.612;-2.416;2023-05-20T00:31:39;101231.34;;;10.45;84.69
79707;BME280;69200;53.612;-2.416;2023-05-20T00:34:06;101239.50;;;10.58;84.23
79707;BME280;69200;53.612;-2.416;2023-05-20T00:36:32;101241.38;;;10.57;84.17
79707;BME280;69200;53.612;-2.416;2023-05-20T00:38:57;101241.63;;;10.69;84.46
79707;BME280;69200;53.612;-2.416;2023-05-20T00:41:23;101245.56;;;10.67;84.02
79707;BME280;69200;53.612;-2.416;2023-05-20T00:43:52;101239.88;;;10.42;84.39
79707;BME280;69200;53.612;-2.416;2023-05-20T00:46:17;101236.97;;;10.43;85.41
79707;BME280;69200;53.612;-2.416;2023-05-20T00:48:43;101235.53;;;10.60;84.58
79707;BME280;69200;53.612;-2.416;2023-05-20T00:51:12;101228.16;;;10.34;85.12
79707;BME280;69200;53.612;-2.416;2023-05-20T00:53:39;101228.59;;;10.31;85.91
79707;BME280;69200;53.612;-2.416;2023-05-20T00:56:05;101233.19;;;10.38;84.78
79707;BME280;69200;53.612;-2.416;2023-05-20T00:58:30;101228.78;;;10.23;85.58
79707;BME280;69200;53.612;-2.416;2023-05-20T01:00:56;101226.44;;;10.20;85.66
79707;BME280;69200;53.612;-2.416;2023-05-20T01:03:22;101232.56;;;10.35;85.81
79707;BME280;69200;53.612;-2.416;2023-05-20T01:05:47;101232.78;;;10.47;84.87
79707;BME280;69200;53.612;-2.416;2023-05-20T01:08:12;101232.38;;;10.37;85.05
79707;BME280;69200;53.612;-2.416;2023-05-20T01:10:41;101234.75;;;10.12;85.00
79707;BME280;69200;53.612;-2.416;2023-05-20T01:13:10;101229.75;;;10.16;85.01
79707;BME280;69200;53.612;-2.416;2023-05-20T01:15:40;101232.25;;;10.11;86.43
79707;BME280;69200;53.612;-2.416;2023-05-20T01:18:07;101234.34;;;10.15;85.95
79707;BME280;69200;53.612;-2.416;2023-05-20T01:20:35;101241.69;;;10.21;86.17
79707;BME280;69200;53.612;-2.416;2023-05-20T01:23:01;101231.97;;;10.47;84.22
79707;BME280;69200;53.612;-2.416;2023-05-20T01:25:27;101226.50;;;10.40;83.99
79707;BME280;69200;53.612;-2.416;2023-05-20T01:27:53;101243.25;;;10.57;83.62
79707;BME280;69200;53.612;-2.416;2023-05-20T01:30:20;101232.78;;;10.41;84.34
79707;BME280;69200;53.612;-2.416;2023-05-20T01:32:54;101227.34;;;10.34;85.19
79707;BME280;69200;53.612;-2.416;2023-05-20T01:35:22;101234.97;;;10.17;85.38
79707;BME280;69200;53.612;-2.416;2023-05-20T01:37:49;101228.50;;;10.18;85.95
79707;BME280;69200;53.612;-2.416;2023-05-20T01:40:17;101227.66;;;10.18;83.74
79707;BME280;69200;53.612;-2.416;2023-05-20T01:42:43;101229.28;;;9.99;84.30
79707;BME280;69200;53.612;-2.416;2023-05-20T01:45:10;101224.06;;;9.97;83.73
79707;BME280;69200;53.612;-2.416;2023-05-20T01:47:35;101219.13;;;9.66;84.49
79707;BME280;69200;53.612;-2.416;2023-05-20T01:50:01;101219.44;;;9.50;85.63
79707;BME280;69200;53.612;-2.416;2023-05-20T01:52:27;101224.66;;;9.51;86.29
79707;BME280;69200;53.612;-2.416;2023-05-20T01:54:53;101219.69;;;9.96;84.19
79707;BME280;69200;53.612;-2.416;2023-05-20T01:57:22;101209.22;;;9.93;84.42
79707;BME280;69200;53.612;-2.416;2023-05-20T01:59:48;101215.81;;;9.71;86.06
79707;BME280;69200;53.612;-2.416;2023-05-20T02:02:14;101212.56;;;9.47;85.24
79707;BME280;69200;53.612;-2.416;2023-05-20T02:04:41;101214.75;;;9.31;84.39
79707;BME280;69200;53.612;-2.416;2023-05-20T02:07:08;101220.44;;;9.08;84.52
79707;BME280;69200;53.612;-2.416;2023-05-20T02:09:33;101218.63;;;8.93;84.89
79707;BME280;69200;53.612;-2.416;2023-05-20T02:11:59;101222.53;;;8.84;84.68
79707;BME280;69200;53.612;-2.416;2023-05-20T02:14:24;101215.03;;;8.65;85.38
79707;BME280;69200;53.612;-2.416;2023-05-20T02:16:50;101215.94;;;8.72;86.77
79707;BME280;69200;53.612;-2.416;2023-05-20T02:19:15;101217.63;;;8.73;86.65
79707;BME280;69200;53.612;-2.416;2023-05-20T02:21:47;101221.13;;;8.46;86.28
79707;BME280;69200;53.612;-2.416;2023-05-20T02:24:13;101220.44;;;9.08;85.41
79707;BME280;69200;53.612;-2.416;2023-05-20T02:26:38;101219.06;;;8.97;84.66
79707;BME280;69200;53.612;-2.416;2023-05-20T02:29:03;101222.47;;;8.78;87.73
79707;BME280;69200;53.612;-2.416;2023-05-20T02:31:29;101219.63;;;8.64;85.56
79707;BME280;69200;53.612;-2.416;2023-05-20T02:33:54;101225.84;;;8.58;85.61
79707;BME280;69200;53.612;-2.416;2023-05-20T02:36:20;101218.53;;;8.37;86.17
79707;BME280;69200;53.612;-2.416;2023-05-20T02:38:45;101217.69;;;8.37;86.21
79707;BME280;69200;53.612;-2.416;2023-05-20T02:41:10;101219.31;;;8.53;85.73
79707;BME280;69200;53.612;-2.416;2023-05-20T02:43:36;101211.78;;;8.48;85.83
79707;BME280;69200;53.612;-2.416;2023-05-20T02:46:02;101218.53;;;8.37;86.57
79707;BME280;69200;53.612;-2.416;2023-05-20T02:48:27;101217.25;;;8.55;86.19
79707;BME280;69200;53.612;-2.416;2023-05-20T02:50:53;101222.03;;;8.53;86.05
79707;BME280;69200;53.612;-2.416;2023-05-20T02:53:18;101221.94;;;8.46;87.84
79707;BME280;69200;53.612;-2.416;2023-05-20T02:55:45;101220.91;;;8.47;86.85
79707;BME280;69200;53.612;-2.416;2023-05-20T02:58:12;101213.50;;;8.34;86.98
79707;BME280;69200;53.612;-2.416;2023-05-20T03:00:38;101222.28;;;8.36;87.11
79707;BME280;69200;53.612;-2.416;2023-05-20T03:03:05;101221.19;;;8.16;85.96
79707;BME280;69200;53.612;-2.416;2023-05-20T03:05:32;101216.44;;;8.18;86.39
79707;BME280;69200;53.612;-2.416;2023-05-20T03:07:57;101221.69;;;8.05;85.75
79707;BME280;69200;53.612;-2.416;2023-05-20T03:10:23;101221.47;;;8.06;86.51
79707;BME280;69200;53.612;-2.416;2023-05-20T03:12:48;101224.81;;;8.08;86.93
79707;BME280;69200;53.612;-2.416;2023-05-20T03:15:14;101225.13;;;7.99;85.93
79707;BME280;69200;53.612;-2.416;2023-05-20T03:17:39;101215.69;;;8.09;85.88
79707;BME280;69200;53.612;-2.416;2023-05-20T03:20:05;101220.72;;;8.12;84.50
79707;BME280;69200;53.612;-2.416;2023-05-20T03:22:31;101214.19;;;8.22;84.45
79707;BME280;69200;53.612;-2.416;2023-05-20T03:24:57;101213.56;;;8.05;86.65
79707;BME280;69200;53.612;-2.416;2023-05-20T03:27:24;101207.84;;;7.78;86.88
79707;BME280;69200;53.612;-2.416;2023-05-20T03:29:51;101219.84;;;7.76;87.18
79707;BME280;69200;53.612;-2.416;2023-05-20T03:32:19;101219.31;;;7.66;86.49
79707;BME280;69200;53.612;-2.416;2023-05-20T03:34:44;101220.06;;;7.60;86.48
79707;BME280;69200;53.612;-2.416;2023-05-20T03:37:10;101210.19;;;7.52;86.89
79707;BME280;69200;53.612;-2.416;2023-05-20T03:39:35;101203.19;;;7.72;87.30
79707;BME280;69200;53.612;-2.416;2023-05-20T03:42:01;101196.38;;;7.76;86.53
79707;BME280;69200;53.612;-2.416;2023-05-20T03:44:26;101202.47;;;7.64;86.42
79707;BME280;69200;53.612;-2.416;2023-05-20T03:46:52;101205.72;;;7.59;86.54
79707;BME280;69200;53.612;-2.416;2023-05-20T03:49:17;101206.72;;;7.73;88.03
79707;BME280;69200;53.612;-2.416;2023-05-20T03:51:42;101205.59;;;7.82;87.58
79707;BME280;69200;53.612;-2.416;2023-05-20T03:54:08;101213.41;;;7.77;87.17
79707;BME280;69200;53.612;-2.416;2023-05-20T03:56:33;101206.44;;;7.68;85.92
79707;BME280;69200;53.612;-2.416;2023-05-20T03:58:58;101207.78;;;7.57;86.40
79707;BME280;69200;53.612;-2.416;2023-05-20T04:01:24;101207.22;;;7.47;86.33
79707;BME280;69200;53.612;-2.416;2023-05-20T04:03:50;101208.16;;;7.24;86.55
79707;BME280;69200;53.612;-2.416;2023-05-20T04:06:15;101219.47;;;7.20;88.30
79707;BME280;69200;53.612;-2.416;2023-05-20T04:08:40;101213.25;;;7.34;87.83
79707;BME280;69200;53.612;-2.416;2023-05-20T04:11:06;101218.03;;;7.47;89.20
79707;BME280;69200;53.612;-2.416;2023-05-20T04:13:32;101205.53;;;7.61;87.73
79707;BME280;69200;53.612;-2.416;2023-05-20T04:15:57;101205.72;;;7.44;87.96
79707;BME280;69200;53.612;-2.416;2023-05-20T04:18:25;101204.03;;;7.73;88.99
79707;BME280;69200;53.612;-2.416;2023-05-20T04:20:54;101207.25;;;7.98;87.98
79707;BME280;69200;53.612;-2.416;2023-05-20T04:23:24;101208.38;;;8.25;86.14
79707;BME280;69200;53.612;-2.416;2023-05-20T04:25:49;101198.03;;;8.28;85.73
79707;BME280;69200;53.612;-2.416;2023-05-20T04:28:15;101200.03;;;8.41;83.72
79707;BME280;69200;53.612;-2.416;2023-05-20T04:30:41;101201.94;;;8.26;85.83
79707;BME280;69200;53.612;-2.416;2023-05-20T04:33:07;101206.94;;;8.07;84.65
79707;BME280;69200;53.612;-2.416;2023-05-20T04:35:32;101210.94;;;8.11;85.21
79707;BME280;69200;53.612;-2.416;2023-05-20T04:37:59;101205.22;;;8.36;83.90
79707;BME280;69200;53.612;-2.416;2023-05-20T04:40:25;101208.94;;;8.78;82.77
79707;BME280;69200;53.612;-2.416;2023-05-20T04:42:51;101209.03;;;9.53;77.75
79707;BME280;69200;53.612;-2.416;2023-05-20T04:45:17;101208.19;;;9.94;79.71
79707;BME280;69200;53.612;-2.416;2023-05-20T04:47:42;101191.63;;;10.24;75.34
79707;BME280;69200;53.612;-2.416;2023-05-20T04:50:09;101199.22;;;10.81;73.55
79707;BME280;69200;53.612;-2.416;2023-05-20T04:52:38;101206.28;;;11.29;71.96
79707;BME280;69200;53.612;-2.416;2023-05-20T04:57:32;101206.66;;;12.10;67.61
79707;BME280;69200;53.612;-2.416;2023-05-20T04:59:59;101205.44;;;12.44;66.42
79707;BME280;69200;53.612;-2.416;2023-05-20T05:02:25;101207.94;;;12.77;65.33
79707;BME280;69200;53.612;-2.416;2023-05-20T05:04:50;101213.06;;;12.92;64.57
79707;BME280;69200;53.612;-2.416;2023-05-20T05:07:16;101214.75;;;13.11;64.65
79707;BME280;69200;53.612;-2.416;2023-05-20T05:09:41;101213.44;;;13.64;63.07
79707;BME280;69200;53.612;-2.416;2023-05-20T05:12:06;101204.09;;;13.90;61.52
79707;BME280;69200;53.612;-2.416;2023-05-20T05:14:32;101205.22;;;14.00;60.87
79707;BME280;69200;53.612;-2.416;2023-05-20T05:16:57;101217.63;;;14.75;59.20
79707;BME280;69200;53.612;-2.416;2023-05-20T05:19:23;101212.28;;;14.80;58.62
79707;BME280;69200;53.612;-2.416;2023-05-20T05:21:48;101207.59;;;15.10;58.58
79707;BME280;69200;53.612;-2.416;2023-05-20T05:24:13;101213.31;;;14.67;59.89
79707;BME280;69200;53.612;-2.416;2023-05-20T05:26:39;101204.63;;;13.98;60.87
79707;BME280;69200;53.612;-2.416;2023-05-20T05:29:04;101206.69;;;14.63;59.49
79707;BME280;69200;53.612;-2.416;2023-05-20T05:31:30;101199.00;;;15.54;55.73
79707;BME280;69200;53.612;-2.416;2023-05-20T05:33:55;101199.13;;;15.59;56.35
79707;BME280;69200;53.612;-2.416;2023-05-20T05:36:22;101203.78;;;15.35;56.97
79707;BME280;69200;53.612;-2.416;2023-05-20T05:38:48;101198.53;;;15.69;56.34
79707;BME280;69200;53.612;-2.416;2023-05-20T05:41:14;101200.81;;;16.57;53.78
79707;BME280;69200;53.612;-2.416;2023-05-20T05:43:40;101201.38;;;16.71;53.53
79707;BME280;69200;53.612;-2.416;2023-05-20T05:46:05;101206.94;;;16.19;54.61
79707;BME280;69200;53.612;-2.416;2023-05-20T05:48:31;101199.38;;;16.83;53.43
79707;BME280;69200;53.612;-2.416;2023-05-20T05:50:56;101202.19;;;17.77;51.77
79707;BME280;69200;53.612;-2.416;2023-05-20T05:53:21;101194.88;;;17.88;52.33
79707;BME280;69200;53.612;-2.416;2023-05-20T05:55:47;101209.66;;;18.85;49.67
79707;BME280;69200;53.612;-2.416;2023-05-20T05:58:12;101202.63;;;18.13;52.22
79707;BME280;69200;53.612;-2.416;2023-05-20T06:00:38;101211.75;;;18.18;51.49
79707;BME280;69200;53.612;-2.416;2023-05-20T06:03:03;101210.63;;;17.54;52.39
79707;BME280;69200;53.612;-2.416;2023-05-20T06:05:30;101217.31;;;17.80;52.40
79707;BME280;69200;53.612;-2.416;2023-05-20T06:07:55;101218.19;;;16.34;56.09
79707;BME280;69200;53.612;-2.416;2023-05-20T06:10:21;101219.63;;;17.49;50.87
79707;BME280;69200;53.612;-2.416;2023-05-20T06:12:46;101216.16;;;15.26;59.16
79707;BME280;69200;53.612;-2.416;2023-05-20T06:15:11;101223.06;;;16.04;54.83
79707;BME280;69200;53.612;-2.416;2023-05-20T06:17:37;101223.06;;;16.04;54.83
79707;BME280;69200;53.612;-2.416;2023-05-20T06:20:03;101220.41;;;14.98;54.84
79707;BME280;69200;53.612;-2.416;2023-05-20T06:22:28;101226.00;;;14.50;56.22
79707;BME280;69200;53.612;-2.416;2023-05-20T06:24:55;101225.06;;;15.45;50.95
79707;BME280;69200;53.612;-2.416;2023-05-20T06:27:21;101232.41;;;16.31;51.31
79707;BME280;69200;53.612;-2.416;2023-05-20T06:29:46;101223.44;;;16.36;50.10
79707;BME280;69200;53.612;-2.416;2023-05-20T06:32:11;101225.78;;;17.40;46.58
79707;BME280;69200;53.612;-2.416;2023-05-20T06:34:37;101225.44;;;16.12;50.22
79707;BME280;69200;53.612;-2.416;2023-05-20T06:37:02;101221.75;;;16.63;48.99
79707;BME280;69200;53.612;-2.416;2023-05-20T06:39:27;101225.66;;;16.96;48.53
79707;BME280;69200;53.612;-2.416;2023-05-20T06:41:53;101215.41;;;15.54;48.10
79707;BME280;69200;53.612;-2.416;2023-05-20T06:44:18;101215.91;;;16.14;48.47
79707;BME280;69200;53.612;-2.416;2023-05-20T06:46:44;101213.41;;;17.20;44.46
79707;BME280;69200;53.612;-2.416;2023-05-20T06:49:09;101221.59;;;15.84;46.67
79707;BME280;69200;53.612;-2.416;2023-05-20T06:51:34;101204.88;;;16.55;44.24
79707;BME280;69200;53.612;-2.416;2023-05-20T06:54:00;101202.22;;;16.60;43.39
79707;BME280;69200;53.612;-2.416;2023-05-20T06:56:25;101212.97;;;17.45;42.18
79707;BME280;69200;53.612;-2.416;2023-05-20T06:58:51;101208.63;;;15.80;45.02
79707;BME280;69200;53.612;-2.416;2023-05-20T07:01:16;101199.47;;;16.14;43.32
79707;BME280;69200;53.612;-2.416;2023-05-20T07:03:42;101200.13;;;16.95;42.93
79707;BME280;69200;53.612;-2.416;2023-05-20T07:06:09;101198.69;;;16.76;38.82
79707;BME280;69200;53.612;-2.416;2023-05-20T07:08:34;101192.88;;;18.27;37.58
79707;BME280;69200;53.612;-2.416;2023-05-20T07:10:59;101191.47;;;17.76;37.72
79707;BME280;69200;53.612;-2.416;2023-05-20T07:13:25;101187.25;;;18.66;36.15
79707;BME280;69200;53.612;-2.416;2023-05-20T07:15:51;101194.03;;;17.66;38.67
79707;BME280;69200;53.612;-2.416;2023-05-20T07:18:16;101197.47;;;17.73;36.92
79707;BME280;69200;53.612;-2.416;2023-05-20T07:20:43;101210.81;;;16.06;39.72
79707;BME280;69200;53.612;-2.416;2023-05-20T07:23:08;101200.66;;;16.64;40.03
79707;BME280;69200;53.612;-2.416;2023-05-20T07:25:34;101192.97;;;17.28;39.98
79707;BME280;69200;53.612;-2.416;2023-05-20T07:27:59;101190.72;;;17.08;40.07
79707;BME280;69200;53.612;-2.416;2023-05-20T07:30:25;101189.88;;;17.63;40.16
79707;BME280;69200;53.612;-2.416;2023-05-20T07:32:51;101197.56;;;16.89;41.73
79707;BME280;69200;53.612;-2.416;2023-05-20T07:35:16;101198.88;;;17.75;41.89
79707;BME280;69200;53.612;-2.416;2023-05-20T07:37:42;101201.06;;;16.56;42.91
79707;BME280;69200;53.612;-2.416;2023-05-20T07:40:08;101203.38;;;15.78;45.81
79707;BME280;69200;53.612;-2.416;2023-05-20T07:42:33;101201.94;;;15.87;46.25
79707;BME280;69200;53.612;-2.416;2023-05-20T07:44:59;101203.34;;;16.92;44.74
79707;BME280;69200;53.612;-2.416;2023-05-20T07:47:25;101207.63;;;17.17;45.34
79707;BME280;69200;53.612;-2.416;2023-05-20T07:49:50;101206.97;;;17.87;44.33
79707;BME280;69200;53.612;-2.416;2023-05-20T07:52:16;101205.69;;;17.34;44.76
79707;BME280;69200;53.612;-2.416;2023-05-20T07:54:41;101215.91;;;16.71;45.42
79707;BME280;69200;53.612;-2.416;2023-05-20T07:57:07;101213.16;;;16.14;46.70
79707;BME280;69200;53.612;-2.416;2023-05-20T07:59:32;101217.09;;;15.20;50.60
79707;BME280;69200;53.612;-2.416;2023-05-20T08:01:58;101221.97;;;15.53;50.17
79707;BME280;69200;53.612;-2.416;2023-05-20T08:04:23;101217.19;;;15.60;49.64
79707;BME280;69200;53.612;-2.416;2023-05-20T08:06:48;101224.00;;;16.09;48.93
79707;BME280;69200;53.612;-2.416;2023-05-20T08:09:14;101221.03;;;15.00;49.73
79707;BME280;69200;53.612;-2.416;2023-05-20T08:11:40;101225.88;;;15.45;50.21
79707;BME280;69200;53.612;-2.416;2023-05-20T08:14:05;101219.47;;;15.39;49.26
79707;BME280;69200;53.612;-2.416;2023-05-20T08:16:31;101211.72;;;15.60;50.35
79707;BME280;69200;53.612;-2.416;2023-05-20T08:18:56;101218.50;;;14.87;51.22
79707;BME280;69200;53.612;-2.416;2023-05-20T08:21:22;101213.75;;;15.76;50.47
79707;BME280;69200;53.612;-2.416;2023-05-20T08:23:48;101205.41;;;15.71;48.45
79707;BME280;69200;53.612;-2.416;2023-05-20T08:26:13;101208.88;;;15.43;49.16
79707;BME280;69200;53.612;-2.416;2023-05-20T08:28:38;101211.59;;;15.55;49.44
79707;BME280;69200;53.612;-2.416;2023-05-20T08:31:04;101211.25;;;15.39;50.12
79707;BME280;69200;53.612;-2.416;2023-05-20T08:33:29;101205.19;;;15.37;49.89
79707;BME280;69200;53.612;-2.416;2023-05-20T08:35:55;101203.91;;;15.28;48.99
79707;BME280;69200;53.612;-2.416;2023-05-20T08:38:20;101201.28;;;15.57;48.86
79707;BME280;69200;53.612;-2.416;2023-05-20T08:40:51;101198.66;;;15.74;48.78
79707;BME280;69200;53.612;-2.416;2023-05-20T08:43:17;101210.78;;;15.19;50.26
79707;BME280;69200;53.612;-2.416;2023-05-20T08:45:43;101200.56;;;15.15;51.23
79707;BME280;69200;53.612;-2.416;2023-05-20T08:48:10;101204.72;;;14.94;51.63
79707;BME280;69200;53.612;-2.416;2023-05-20T08:50:37;101203.66;;;14.95;52.29
79707;BME280;69200;53.612;-2.416;2023-05-20T08:53:03;101196.38;;;15.47;51.33
79707;BME280;69200;53.612;-2.416;2023-05-20T08:55:52;101197.31;;;16.16;51.20
79707;BME280;69200;53.612;-2.416;2023-05-20T08:58:18;101198.19;;;15.65;48.88
79707;BME280;69200;53.612;-2.416;2023-05-20T09:00:44;101196.13;;;15.60;50.06
79707;BME280;69200;53.612;-2.416;2023-05-20T09:03:09;101188.09;;;15.19;51.07
79707;BME280;69200;53.612;-2.416;2023-05-20T09:05:35;101188.66;;;15.44;50.32
79707;BME280;69200;53.612;-2.416;2023-05-20T09:08:05;101193.19;;;15.15;50.78
79707;BME280;69200;53.612;-2.416;2023-05-20T09:10:31;101202.47;;;15.14;50.71
79707;BME280;69200;53.612;-2.416;2023-05-20T09:12:59;101198.41;;;15.52;49.68
79707;BME280;69200;53.612;-2.416;2023-05-20T09:15:25;101200.69;;;15.66;50.38
79707;BME280;69200;53.612;-2.416;2023-05-20T09:17:51;101194.59;;;15.53;50.02
79707;BME280;69200;53.612;-2.416;2023-05-20T09:20:16;101200.00;;;15.24;50.36
79707;BME280;69200;53.612;-2.416;2023-05-20T09:22:42;101204.97;;;15.27;50.68
79707;BME280;69200;53.612;-2.416;2023-05-20T09:25:07;101187.59;;;15.22;51.19
79707;BME280;69200;53.612;-2.416;2023-05-20T09:27:34;101188.31;;;15.05;51.37
79707;BME280;69200;53.612;-2.416;2023-05-20T09:30:00;101188.19;;;15.35;51.19
79707;BME280;69200;53.612;-2.416;2023-05-20T09:32:25;101182.13;;;15.22;52.28
79707;BME280;69200;53.612;-2.416;2023-05-20T09:34:54;101189.25;;;15.58;51.61
79707;BME280;69200;53.612;-2.416;2023-05-20T09:37:20;101187.00;;;15.66;51.04
79707;BME280;69200;53.612;-2.416;2023-05-20T09:39:56;101181.38;;;16.13;48.92
79707;BME280;69200;53.612;-2.416;2023-05-20T09:42:41;101189.63;;;15.50;50.25
79707;BME280;69200;53.612;-2.416;2023-05-20T09:45:08;101177.28;;;15.87;50.73
79707;BME280;69200;53.612;-2.416;2023-05-20T09:47:38;101167.47;;;16.03;50.28
79707;BME280;69200;53.612;-2.416;2023-05-20T09:50:06;101169.16;;;16.78;49.65
79707;BME280;69200;53.612;-2.416;2023-05-20T09:52:34;101170.47;;;17.09;47.80
79707;BME280;69200;53.612;-2.416;2023-05-20T09:55:02;101167.38;;;16.27;49.14
79707;BME280;69200;53.612;-2.416;2023-05-20T09:57:35;101165.88;;;16.19;48.83
79707;BME280;69200;53.612;-2.416;2023-05-20T10:00:02;101168.41;;;15.80;49.44
79707;BME280;69200;53.612;-2.416;2023-05-20T10:02:29;101158.28;;;16.09;49.80
79707;BME280;69200;53.612;-2.416;2023-05-20T10:04:56;101152.13;;;16.31;48.37
79707;BME280;69200;53.612;-2.416;2023-05-20T10:10:16;101143.84;;;16.42;48.08
79707;BME280;69200;53.612;-2.416;2023-05-20T10:15:43;101138.78;;;16.06;48.45
79707;BME280;69200;53.612;-2.416;2023-05-20T10:18:22;101142.22;;;16.13;49.17
79707;BME280;69200;53.612;-2.416;2023-05-20T10:20:50;101135.34;;;16.27;48.07
79707;BME280;69200;53.612;-2.416;2023-05-20T10:23:29;101133.25;;;16.17;47.31
79707;BME280;69200;53.612;-2.416;2023-05-20T10:25:55;101142.31;;;16.35;46.65
79707;BME280;69200;53.612;-2.416;2023-05-20T10:28:29;101131.34;;;16.18;46.35
79707;BME280;69200;53.612;-2.416;2023-05-20T10:30:56;101126.69;;;16.18;45.87
79707;BME280;69200;53.612;-2.416;2023-05-20T10:33:21;101123.22;;;16.23;44.77
79707;BME280;69200;53.612;-2.416;2023-05-20T10:35:49;101121.59;;;16.56;44.84
79707;BME280;69200;53.612;-2.416;2023-05-20T10:38:16;101121.47;;;16.17;46.04
79707;BME280;69200;53.612;-2.416;2023-05-20T10:40:42;101126.00;;;16.11;46.40
79707;BME280;69200;53.612;-2.416;2023-05-20T10:43:09;101123.28;;;16.28;45.70
79707;BME280;69200;53.612;-2.416;2023-05-20T10:45:46;101126.03;;;16.73;45.22
79707;BME280;69200;53.612;-2.416;2023-05-20T10:48:28;101123.63;;;16.94;45.58
79707;BME280;69200;53.612;-2.416;2023-05-20T10:50:55;101120.06;;;16.76;44.78
79707;BME280;69200;53.612;-2.416;2023-05-20T10:53:26;101109.06;;;17.54;43.69
79707;BME280;69200;53.612;-2.416;2023-05-20T10:55:53;101102.81;;;17.37;42.57
79707;BME280;69200;53.612;-2.416;2023-05-20T10:58:22;101091.97;;;17.25;41.49
79707;BME280;69200;53.612;-2.416;2023-05-20T11:00:51;101100.63;;;17.17;42.82
79707;BME280;69200;53.612;-2.416;2023-05-20T11:03:17;101096.47;;;17.14;43.22
79707;BME280;69200;53.612;-2.416;2023-05-20T11:05:46;101095.50;;;17.03;42.89
79707;BME280;69200;53.612;-2.416;2023-05-20T11:08:13;101087.50;;;17.19;44.17
79707;BME280;69200;53.612;-2.416;2023-05-20T11:10:38;101089.09;;;17.37;43.98
79707;BME280;69200;53.612;-2.416;2023-05-20T11:13:05;101083.00;;;17.56;41.94
79707;BME280;69200;53.612;-2.416;2023-05-20T11:15:33;101089.16;;;17.42;41.54
79707;BME280;69200;53.612;-2.416;2023-05-20T11:18:02;101068.41;;;17.29;40.61
79707;BME280;69200;53.612;-2.416;2023-05-20T11:20:28;101088.75;;;17.55;39.89
79707;BME280;69200;53.612;-2.416;2023-05-20T11:22:54;101079.31;;;17.46;40.51
79707;BME280;69200;53.612;-2.416;2023-05-20T11:25:22;101081.22;;;17.67;40.42
79707;BME280;69200;53.612;-2.416;2023-05-20T11:27:48;101069.16;;;17.24;40.72
79707;BME280;69200;53.612;-2.416;2023-05-20T11:30:15;101072.50;;;17.26;40.41
79707;BME280;69200;53.612;-2.416;2023-05-20T11:33:03;101068.44;;;17.56;39.79
79707;BME280;69200;53.612;-2.416;2023-05-20T11:35:30;101077.84;;;18.09;39.40
79707;BME280;69200;53.612;-2.416;2023-05-20T11:38:05;101081.16;;;17.84;39.07
79707;BME280;69200;53.612;-2.416;2023-05-20T11:40:34;101071.59;;;17.43;40.58
79707;BME280;69200;53.612;-2.416;2023-05-20T11:43:03;101074.28;;;17.81;40.56
79707;BME280;69200;53.612;-2.416;2023-05-20T11:45:41;101068.84;;;18.13;41.47
79707;BME280;69200;53.612;-2.416;2023-05-20T11:48:08;101062.19;;;18.09;40.77
79707;BME280;69200;53.612;-2.416;2023-05-20T11:50:38;101060.41;;;17.71;40.97
79707;BME280;69200;53.612;-2.416;2023-05-20T11:53:06;101058.19;;;17.95;40.55
79707;BME280;69200;53.612;-2.416;2023-05-20T11:55:33;101057.06;;;17.91;39.82
79707;BME280;69200;53.612;-2.416;2023-05-20T11:58:00;101049.66;;;17.92;40.64
79707;BME280;69200;53.612;-2.416;2023-05-20T12:00:27;101051.03;;;18.53;39.27
79707;BME280;69200;53.612;-2.416;2023-05-20T12:02:53;101047.34;;;18.37;39.03
79707;BME280;69200;53.612;-2.416;2023-05-20T12:05:18;101041.31;;;18.40;39.85
79707;BME280;69200;53.612;-2.416;2023-05-20T12:07:44;101045.16;;;19.29;39.18
79707;BME280;69200;53.612;-2.416;2023-05-20T12:10:10;101034.13;;;19.19;39.81
79707;BME280;69200;53.612;-2.416;2023-05-20T12:12:35;101024.88;;;19.50;37.12
79707;BME280;69200;53.612;-2.416;2023-05-20T12:15:03;101025.22;;;18.59;37.67
79707;BME280;69200;53.612;-2.416;2023-05-20T12:17:28;101017.22;;;18.21;37.89
79707;BME280;69200;53.612;-2.416;2023-05-20T12:19:54;101025.59;;;18.36;38.41
79707;BME280;69200;53.612;-2.416;2023-05-20T12:22:19;101029.06;;;18.21;38.39
79707;BME280;69200;53.612;-2.416;2023-05-20T12:24:45;101021.22;;;17.76;38.65
79707;BME280;69200;53.612;-2.416;2023-05-20T12:27:10;101017.97;;;18.11;39.68
79707;BME280;69200;53.612;-2.416;2023-05-20T12:29:36;101019.25;;;18.35;39.21
79707;BME280;69200;53.612;-2.416;2023-05-20T12:32:02;101020.34;;;18.34;37.88
79707;BME280;69200;53.612;-2.416;2023-05-20T12:34:28;101005.94;;;18.54;37.89
79707;BME280;69200;53.612;-2.416;2023-05-20T12:36:54;101001.88;;;18.25;38.64
79707;BME280;69200;53.612;-2.416;2023-05-20T12:39:20;101011.09;;;18.08;39.59
79707;BME280;69200;53.612;-2.416;2023-05-20T12:41:45;101005.22;;;18.32;38.43
79707;BME280;69200;53.612;-2.416;2023-05-20T12:44:10;101001.19;;;18.82;38.04
79707;BME280;69200;53.612;-2.416;2023-05-20T12:46:36;100995.44;;;18.88;38.33